Time;durP1;ratioP1;P1;durP2;ratioP2;P2;SDS_P1;SDS_P2;PMS_P1;PMS_P2;Temp;Humidity;BMP_temperature;BMP_pressure;BME280_temperature;BME280_humidity;BME280_pressure;Samples;Min_cycle;Max_cycle;Signal;HPM_P1;HPM_P2
2021/12/02 00:01:41;;;;;;;2.67;1.10;;;;;;;7.58;100.00;96897.37;4218358;83;28507;-79
2021/12/02 00:07:43;;;;;;;2.65;1.27;;;;;;;7.64;100.00;96897.63;4209165;83;28463;-77
2021/12/02 00:25:55;;;;;;;1.60;0.90;;;;;;;7.61;100.00;96904.33;4167565;84;20251;-78
2021/12/02 00:32:01;;;;;;;1.85;1.00;;;;;;;7.68;100.00;96914.77;4171936;84;28493;-77
2021/12/02 00:38:03;;;;;;;1.47;0.80;;;;;;;7.67;100.00;96913.95;4222075;83;28549;-77
2021/12/02 00:44:05;;;;;;;2.67;1.07;;;;;;;7.67;100.00;96913.95;4241360;83;28502;-78
2021/12/02 00:50:08;;;;;;;1.85;0.80;;;;;;;7.70;100.00;96898.44;4171191;83;28524;-77
2021/12/02 00:56:16;;;;;;;1.72;0.75;;;;;;;7.59;100.00;96895.75;4182647;83;28497;-81
2021/12/02 01:02:18;;;;;;;1.45;0.70;;;;;;;7.63;100.00;96905.39;4143763;85;28485;-78
2021/12/02 01:08:20;;;;;;;1.10;0.70;;;;;;;7.67;100.00;96910.49;4197126;85;28580;-78
2021/12/02 01:14:21;;;;;;;1.02;0.80;;;;;;;7.77;100.00;96912.38;4197683;83;28514;-76
2021/12/02 01:20:23;;;;;;;1.27;0.90;;;;;;;7.76;100.00;96911.59;4159228;84;28505;-77
2021/12/02 01:26:27;;;;;;;1.20;0.80;;;;;;;7.69;100.00;96917.72;4206037;84;28478;-80
2021/12/02 01:32:34;;;;;;;1.07;0.62;;;;;;;7.64;100.00;96906.98;4190246;84;28502;-78
2021/12/02 01:38:35;;;;;;;1.42;0.70;;;;;;;7.70;100.00;96903.79;4188510;84;28487;-76
2021/12/02 01:44:41;;;;;;;1.50;0.82;;;;;;;7.75;100.00;96910.50;4161859;85;28472;-76
2021/12/02 01:50:44;;;;;;;0.80;0.70;;;;;;;7.80;100.00;96921.20;4196474;85;28482;-76
2021/12/02 01:56:52;;;;;;;1.65;0.90;;;;;;;7.74;100.00;96920.94;4225051;84;28470;-78
2021/12/02 02:02:54;;;;;;;2.15;0.90;;;;;;;7.74;100.00;96908.34;4216598;82;28527;-77
2021/12/02 02:08:59;;;;;;;1.60;0.90;;;;;;;7.74;100.00;96929.75;4219887;83;28586;-77
2021/12/02 02:15:02;;;;;;;1.27;0.70;;;;;;;7.67;100.00;96921.98;4201245;84;28445;-77
2021/12/02 02:21:06;;;;;;;1.55;0.70;;;;;;;7.71;100.00;96920.92;4143879;86;28483;-77
2021/12/02 02:27:06;;;;;;;2.05;0.72;;;;;;;7.77;100.00;96923.89;4151726;85;28499;-77
2021/12/02 02:33:11;;;;;;;2.17;1.10;;;;;;;7.75;100.00;96932.69;4184752;84;28513;-77
2021/12/02 02:39:12;;;;;;;1.98;1.00;;;;;;;7.69;100.00;96935.09;4170671;84;28485;-77
2021/12/02 02:45:14;;;;;;;2.95;0.85;;;;;;;7.67;100.00;96932.68;4167004;84;28559;-76
2021/12/02 02:51:16;;;;;;;2.98;1.10;;;;;;;7.67;100.00;96939.36;4103577;84;28537;-75
2021/12/02 02:57:20;;;;;;;1.32;0.80;;;;;;;7.67;100.00;96938.03;4165998;83;28512;-77
2021/12/02 03:03:37;;;;;;;1.75;0.95;;;;;;;7.65;100.00;96940.17;4147879;84;28506;-75
2021/12/02 03:21:55;;;;;;;2.17;0.90;;;;;;;7.80;100.00;96949.28;4150272;84;28517;-77
2021/12/02 03:27:56;;;;;;;1.32;0.95;;;;;;;7.73;100.00;96942.86;4126343;84;28524;-76
2021/12/02 03:33:58;;;;;;;2.22;1.10;;;;;;;7.68;100.00;96950.33;4150481;84;28528;-76
2021/12/02 03:39:59;;;;;;;2.05;0.80;;;;;;;7.56;100.00;96946.31;4242088;83;28541;-78
2021/12/02 03:46:01;;;;;;;1.37;0.90;;;;;;;7.46;100.00;96954.56;4219111;83;28483;-79
2021/12/02 03:52:03;;;;;;;1.47;0.98;;;;;;;7.50;100.00;96949.50;4106466;86;28565;-79
2021/12/02 03:58:04;;;;;;;1.25;0.98;;;;;;;7.42;100.00;96954.80;4241795;83;28505;-78
2021/12/02 04:04:05;;;;;;;2.30;1.20;;;;;;;7.31;100.00;96955.30;4189055;84;28494;-79
2021/12/02 04:10:07;;;;;;;2.17;1.05;;;;;;;7.16;100.00;96960.05;4157485;84;28521;-78
2021/12/02 04:16:14;;;;;;;1.80;0.90;;;;;;;7.08;100.00;96954.67;4253655;83;28548;-81
2021/12/02 04:22:11;;;;;;;2.12;1.00;;;;;;;6.95;100.00;96949.77;4229146;83;28473;-79
2021/12/02 04:28:12;;;;;;;1.60;0.93;;;;;;;6.91;100.00;96953.48;4206545;83;28563;-78
2021/12/02 04:34:14;;;;;;;3.80;1.15;;;;;;;6.79;100.00;96946.21;4250533;83;28494;-77
2021/12/02 04:40:16;;;;;;;1.22;0.95;;;;;;;6.77;100.00;96949.67;4175815;83;28545;-77
2021/12/02 04:46:17;;;;;;;1.98;1.27;;;;;;;6.71;100.00;96947.51;4195030;85;28552;-80
2021/12/02 04:52:19;;;;;;;3.08;1.35;;;;;;;6.72;100.00;96952.30;4140100;85;28528;-78
2021/12/02 04:58:22;;;;;;;2.77;1.20;;;;;;;6.66;100.00;96958.14;4161685;85;28507;-78
2021/12/02 05:04:23;;;;;;;1.47;0.90;;;;;;;6.66;100.00;96958.95;4165470;85;28501;-78
2021/12/02 05:10:24;;;;;;;1.92;1.10;;;;;;;6.65;100.00;96968.03;4064763;86;28507;-78
2021/12/02 05:16:25;;;;;;;3.62;1.00;;;;;;;6.71;100.00;96963.53;4082152;86;28526;-77
2021/12/02 05:22:27;;;;;;;1.82;1.27;;;;;;;6.78;100.00;96973.47;4102176;86;28466;-78
2021/12/02 05:28:28;;;;;;;2.70;1.35;;;;;;;6.79;100.00;96969.73;4176271;85;28508;-78
2021/12/02 05:34:29;;;;;;;1.55;1.20;;;;;;;6.81;100.00;96976.95;4164108;85;28516;-78
2021/12/02 05:40:31;;;;;;;2.12;1.00;;;;;;;6.67;100.00;96985.14;4190502;83;28510;-78
2021/12/02 05:46:33;;;;;;;4.40;1.20;;;;;;;6.56;100.00;96982.92;4172255;85;28525;-80
2021/12/02 05:52:34;;;;;;;1.92;1.00;;;;;;;6.51;100.00;96986.34;4184881;83;28444;-78
2021/12/02 05:58:36;;;;;;;1.62;1.12;;;;;;;6.52;100.00;97009.31;4176433;85;28477;-78
2021/12/02 06:04:37;;;;;;;2.02;1.10;;;;;;;6.47;100.00;97009.29;4191318;85;28485;-77
2021/12/02 06:10:39;;;;;;;2.22;1.30;;;;;;;6.35;100.00;97018.79;4174460;83;28474;-80
2021/12/02 06:16:41;;;;;;;3.45;1.62;;;;;;;6.35;100.00;97028.64;4205905;83;28498;-77
2021/12/02 06:22:43;;;;;;;2.50;1.40;;;;;;;6.11;100.00;97043.13;4233755;83;28521;-80
2021/12/02 06:28:45;;;;;;;2.30;1.10;;;;;;;6.12;100.00;97045.24;4193249;85;28510;-79
2021/12/02 06:34:46;;;;;;;1.45;0.80;;;;;;;6.21;100.00;97044.28;4186955;83;28530;-75
2021/12/02 06:40:47;;;;;;;2.20;1.10;;;;;;;6.35;100.00;97052.15;4122859;85;28551;-75
2021/12/02 06:46:49;;;;;;;2.30;1.25;;;;;;;6.21;100.00;97070.97;4158845;85;28502;-75
2021/12/02 06:52:51;;;;;;;4.08;1.85;;;;;;;6.17;100.00;97073.33;4194870;85;28497;-75
2021/12/02 06:58:53;;;;;;;3.98;1.67;;;;;;;6.34;100.00;97069.23;4174571;85;28499;-74
2021/12/02 07:04:55;;;;;;;2.45;1.50;;;;;;;6.28;100.00;97067.03;4196778;83;28559;-78
2021/12/02 07:10:58;;;;;;;2.42;1.47;;;;;;;6.54;100.00;97065.93;4186617;83;28465;-77
2021/12/02 07:16:59;;;;;;;4.22;1.42;;;;;;;6.64;100.00;97070.57;4161866;83;28460;-79
2021/12/02 07:23:02;;;;;;;3.37;1.70;;;;;;;6.84;100.00;97078.48;4188762;83;28556;-81
2021/12/02 07:29:03;;;;;;;2.95;1.70;;;;;;;7.04;100.00;97081.83;4083087;86;28520;-79
2021/12/02 07:35:14;;;;;;;4.03;1.50;;;;;;;7.38;100.00;97085.52;4187780;83;28551;-73
2021/12/02 07:41:16;;;;;;;42.93;4.70;;;;;;;7.44;100.00;97087.69;4174326;83;28496;-73
2021/12/02 07:47:17;;;;;;;5.22;1.52;;;;;;;7.49;100.00;97110.45;4185917;83;28507;-72
2021/12/02 07:53:19;;;;;;;4.08;1.40;;;;;;;7.57;100.00;97105.69;4169868;83;28769;-75
2021/12/02 07:59:20;;;;;;;4.30;1.50;;;;;;;7.77;100.00;97103.64;4188454;83;28462;-75
2021/12/02 08:05:23;;;;;;;3.37;1.47;;;;;;;7.84;100.00;97116.26;4203299;83;28450;-74
2021/12/02 08:11:24;;;;;;;5.15;1.77;;;;;;;7.98;100.00;97117.93;4192838;83;28528;-73
2021/12/02 08:17:26;;;;;;;3.05;1.50;;;;;;;7.98;100.00;97121.94;4188596;83;28508;-73
2021/12/02 08:23:28;;;;;;;2.95;1.40;;;;;;;8.24;100.00;97108.64;4195999;83;28467;-73
2021/12/02 08:29:32;;;;;;;2.30;1.40;;;;;;;8.36;100.00;97121.80;4192585;83;28544;-74
2021/12/02 08:35:34;;;;;;;5.10;1.50;;;;;;;8.56;100.00;97127.75;4055869;86;28474;-75
2021/12/02 08:41:42;;;;;;;2.55;1.50;;;;;;;8.55;100.00;97146.23;4143307;85;28540;-72
2021/12/02 08:47:45;;;;;;;2.50;1.42;;;;;;;8.37;100.00;97138.92;4129646;86;28519;-75
2021/12/02 08:53:47;;;;;;;4.08;1.50;;;;;;;8.40;100.00;97151.54;4144617;84;28455;-76
2021/12/02 08:59:49;;;;;;;3.40;1.50;;;;;;;8.49;100.00;97157.45;4145617;84;28482;-79
2021/12/02 09:05:50;;;;;;;5.22;1.55;;;;;;;8.64;100.00;97159.39;4149809;85;28458;-71
2021/12/02 09:11:54;;;;;;;2.20;1.47;;;;;;;8.77;100.00;97165.30;4133927;84;28510;-71
2021/12/02 09:17:55;;;;;;;2.10;1.25;;;;;;;8.77;100.00;97184.06;4142092;84;28464;-72
2021/12/02 09:23:56;;;;;;;2.58;1.12;;;;;;;8.70;100.00;97185.66;4132836;85;28538;-70
2021/12/02 09:29:58;;;;;;;2.87;1.20;;;;;;;8.57;100.00;97188.84;4150848;84;28483;-71
2021/12/02 09:35:59;;;;;;;5.47;1.50;;;;;;;8.54;100.00;97182.65;4143428;83;28482;-73
2021/12/02 09:42:05;;;;;;;2.58;1.40;;;;;;;8.55;100.00;97171.69;4147683;84;28489;-72
2021/12/02 09:48:08;;;;;;;1.87;1.00;;;;;;;8.53;100.00;97160.95;4131883;84;28534;-73
2021/12/02 09:54:21;;;;;;;2.60;1.22;;;;;;;8.59;100.00;97151.36;4133360;85;28502;-70
2021/12/02 10:00:25;;;;;;;2.52;1.30;;;;;;;8.64;100.00;97154.55;4135483;84;28522;-71
2021/12/02 10:06:30;;;;;;;2.70;1.20;;;;;;;8.54;100.00;97160.70;4176700;83;28532;-72
2021/12/02 10:12:33;;;;;;;2.40;1.10;;;;;;;8.59;100.00;97165.27;4191733;83;28555;-71
2021/12/02 10:18:49;;;;;;;1.85;0.95;;;;;;;8.54;100.00;97170.08;4183156;83;28505;-70
2021/12/02 10:24:46;;;;;;;1.45;0.88;;;;;;;8.52;100.00;97174.90;4122716;84;28505;-80
2021/12/02 10:30:54;;;;;;;2.10;1.02;;;;;;;8.62;100.00;97188.84;4123672;85;28449;-72
2021/12/02 10:37:10;;;;;;;2.27;1.17;;;;;;;8.65;100.00;97193.69;4180549;81;28519;-75
2021/12/02 10:43:12;;;;;;;2.10;1.30;;;;;;;8.73;100.00;97190.48;4194122;83;28490;-74
2021/12/02 10:49:15;;;;;;;2.45;1.30;;;;;;;8.80;100.00;97192.92;4196769;83;28528;-74
2021/12/02 10:55:22;;;;;;;3.08;1.50;;;;;;;8.87;100.00;97192.66;4200993;83;28463;-74
2021/12/02 11:01:41;;;;;;;3.62;1.35;;;;;;;8.90;100.00;97176.05;4208187;83;28517;-80
2021/12/02 11:07:44;;;;;;;2.77;1.30;;;;;;;9.15;100.00;97181.15;4219575;84;28496;-79
2021/12/02 11:13:50;;;;;;;3.27;1.30;;;;;;;9.22;100.00;97178.23;4194570;83;28461;-72
2021/12/02 11:19:51;;;;;;;2.45;1.55;;;;;;;9.12;100.00;97192.42;4192053;83;28478;-70
2021/12/02 11:26:15;;;;;;;2.42;1.15;;;;;;;9.04;100.00;97194.55;4226633;82;28509;-71
2021/12/02 11:32:42;;;;;;;1.85;1.07;;;;;;;8.93;100.00;97203.13;4221345;82;28646;-74
2021/12/02 11:39:08;;;;;;;2.47;1.20;;;;;;;8.86;97.68;97196.42;4186852;83;28626;-70
2021/12/02 11:45:25;;;;;;;2.77;1.20;;;;;;;8.75;94.46;97200.42;4176847;83;28538;-72
2021/12/02 11:51:25;;;;;;;2.45;1.10;;;;;;;8.74;91.44;97191.30;4193537;83;28477;-70
2021/12/02 11:57:27;;;;;;;2.98;1.50;;;;;;;8.64;91.74;97194.73;4184041;83;28478;-70
2021/12/02 12:03:42;;;;;;;1.82;1.00;;;;;;;8.69;90.99;97199.30;4174553;83;28531;-70
2021/12/02 12:09:44;;;;;;;3.35;1.27;;;;;;;8.68;93.34;97196.36;4184810;83;28516;-71
2021/12/02 12:15:50;;;;;;;2.22;0.93;;;;;;;8.61;94.04;97194.75;4187070;83;28525;-71
2021/12/02 12:21:56;;;;;;;3.62;1.30;;;;;;;8.64;94.39;97188.86;4052247;86;28515;-71
2021/12/02 12:28:00;;;;;;;3.10;1.60;;;;;;;8.56;95.38;97188.58;4119520;84;28557;-72
2021/12/02 12:34:44;;;;;;;2.77;1.30;;;;;;;8.44;96.36;97192.26;4185228;83;39444;-73
2021/12/02 12:40:48;;;;;;;2.58;1.47;;;;;;;8.46;98.19;97198.67;4190010;83;28513;-71
2021/12/02 12:46:55;;;;;;;3.60;1.70;;;;;;;8.35;97.60;97196.51;4206876;83;29079;-71
2021/12/02 12:53:07;;;;;;;;;;;;;;;8.33;99.54;97195.94;4220764;83;28478;-73
2021/12/02 12:59:17;;;;;;;4.08;1.72;;;;;;;8.20;99.96;97193.23;4203627;82;20311;-72
2021/12/02 13:05:45;;;;;;;5.85;1.92;;;;;;;8.18;100.00;97199.39;4203419;83;28509;-76
2021/12/02 13:11:52;;;;;;;4.60;1.77;;;;;;;8.14;100.00;97200.44;4146176;84;28473;-74
2021/12/02 13:17:57;;;;;;;4.70;2.05;;;;;;;8.05;100.00;97205.45;4199338;83;28497;-73
2021/12/02 13:24:13;;;;;;;4.20;2.10;;;;;;;8.04;100.00;97207.86;4198603;83;28516;-73
2021/12/02 13:30:14;;;;;;;5.70;2.60;;;;;;;8.00;100.00;97213.99;4125696;84;28546;-73
2021/12/02 13:36:20;;;;;;;5.95;2.42;;;;;;;7.87;100.00;97211.27;4192037;83;28486;-73
2021/12/02 13:42:21;;;;;;;5.60;2.45;;;;;;;7.77;100.00;97220.83;4144622;84;28529;-74
2021/12/02 13:48:23;;;;;;;4.40;2.05;;;;;;;7.75;100.00;97215.46;4086304;86;28460;-73
2021/12/02 13:54:25;;;;;;;4.92;1.95;;;;;;;7.65;100.00;97221.53;4073058;86;28559;-80
2021/12/02 14:00:32;;;;;;;2.75;1.60;;;;;;;7.56;100.00;97231.91;4082578;86;28493;-80
2021/12/02 14:06:33;;;;;;;4.05;1.67;;;;;;;7.45;100.00;97237.72;4075274;86;28482;-81
2021/12/02 14:12:43;;;;;;;2.50;1.30;;;;;;;7.33;100.00;97233.87;4131493;84;28475;-84
2021/12/02 14:18:45;;;;;;;4.17;1.70;;;;;;;7.19;100.00;97233.47;4081122;86;28463;-73
2021/12/02 14:24:46;;;;;;;4.33;1.72;;;;;;;7.08;100.00;97237.11;4093159;85;28558;-73
2021/12/02 14:30:55;;;;;;;5.33;1.80;;;;;;;6.92;100.00;97251.64;4075246;85;28446;-72
2021/12/02 14:36:57;;;;;;;5.45;1.37;;;;;;;6.84;100.00;97262.80;4093482;85;28554;-75
2021/12/02 14:43:32;;;;;;;4.92;2.00;;;;;;;6.63;100.00;97269.75;4028917;85;28593;-74
2021/12/02 14:49:39;;;;;;;4.25;1.82;;;;;;;6.60;100.00;97281.73;4044536;86;28557;-75
2021/12/02 14:55:41;;;;;;;3.27;1.67;;;;;;;6.36;100.00;97287.31;4140221;85;28548;-75
2021/12/02 15:02:16;;;;;;;4.25;1.87;;;;;;;6.33;100.00;97292.34;4143988;85;28471;-75
2021/12/02 15:08:18;;;;;;;5.07;1.90;;;;;;;6.25;100.00;97306.92;4140715;84;28604;-75
2021/12/02 15:14:38;;;;;;;4.60;2.22;;;;;;;6.22;100.00;97316.76;4147711;85;28495;-74
2021/12/02 15:20:49;;;;;;;7.83;2.98;;;;;;;6.23;100.00;97315.70;4134422;84;28517;-75
2021/12/02 15:27:09;;;;;;;5.47;2.60;;;;;;;6.10;100.00;97327.00;4145500;85;28496;-73
2021/12/02 15:33:14;;;;;;;3.12;1.75;;;;;;;6.03;100.00;97325.53;4144833;85;28475;-76
2021/12/02 15:39:15;;;;;;;5.92;2.40;;;;;;;5.95;100.00;97335.55;4146387;85;28502;-74
2021/12/02 15:45:17;;;;;;;4.72;2.20;;;;;;;5.82;100.00;97335.34;4154563;84;28487;-75
2021/12/02 15:51:18;;;;;;;3.45;1.75;;;;;;;5.58;100.00;97348.00;4148979;84;28534;-75
2021/12/02 15:57:20;;;;;;;5.87;2.40;;;;;;;5.55;100.00;97349.28;4142855;84;28493;-77
2021/12/02 16:15:47;;;;;;;4.70;2.45;;;;;;;5.54;100.00;97366.33;4135855;85;28515;-74
2021/12/02 16:21:50;;;;;;;5.97;2.70;;;;;;;5.51;100.00;97380.14;4139102;85;28522;-74
2021/12/02 16:27:51;;;;;;;6.33;2.67;;;;;;;5.42;100.00;97378.40;4148778;84;28463;-74
2021/12/02 16:33:52;;;;;;;5.10;2.45;;;;;;;5.29;100.00;97395.47;4148932;84;28472;-74
2021/12/02 16:40:17;;;;;;;7.17;2.60;;;;;;;5.08;100.00;97397.45;4149125;84;28555;-82
2021/12/02 16:46:19;;;;;;;6.80;2.92;;;;;;;5.03;100.00;97406.94;4143828;85;28537;-81
2021/12/02 16:52:21;;;;;;;6.55;3.05;;;;;;;5.04;100.00;97405.10;4149406;85;28521;-75
2021/12/02 16:58:24;;;;;;;7.62;2.98;;;;;;;4.82;100.00;97402.23;4149823;84;28503;-74
2021/12/02 17:04:26;;;;;;;8.10;3.80;;;;;;;4.62;100.00;97410.07;4141167;85;28494;-75
2021/12/02 17:10:29;;;;;;;7.12;4.08;;;;;;;4.56;100.00;97415.01;4145249;85;28505;-73
2021/12/02 17:16:31;;;;;;;9.18;3.80;;;;;;;4.55;100.00;97419.51;4153534;85;28463;-73
2021/12/02 17:22:33;;;;;;;10.28;3.52;;;;;;;4.29;100.00;97422.11;4042282;86;28472;-73
2021/12/02 17:28:35;;;;;;;9.85;3.70;;;;;;;4.18;100.00;97432.50;4144484;84;28859;-72
2021/12/02 17:34:37;;;;;;;11.33;4.65;;;;;;;4.10;100.00;97434.70;4151374;84;28471;-73
2021/12/02 17:40:46;;;;;;;19.57;8.23;;;;;;;3.86;100.00;97450.06;4167147;83;28477;-73
2021/12/02 17:46:48;;;;;;;13.35;5.45;;;;;;;3.89;100.00;97449.61;4195776;83;28499;-72
2021/12/02 17:52:49;;;;;;;9.13;4.08;;;;;;;3.96;100.00;97464.66;4192450;83;28484;-73
2021/12/02 17:58:51;;;;;;;10.82;4.80;;;;;;;4.04;100.00;97468.34;4196536;83;28533;-73
2021/12/02 18:04:53;;;;;;;12.75;5.75;;;;;;;4.19;100.00;97468.70;4190104;83;28540;-71
2021/12/02 18:10:55;;;;;;;12.50;5.58;;;;;;;4.28;100.00;97468.38;4190704;83;28476;-72
2021/12/02 18:16:56;;;;;;;16.55;5.72;;;;;;;4.32;100.00;97475.67;4193728;83;28571;-72
2021/12/02 18:22:58;;;;;;;16.27;6.30;;;;;;;4.13;100.00;97480.78;4186838;83;28545;-72
2021/12/02 18:29:01;;;;;;;12.80;5.78;;;;;;;4.20;100.00;97476.17;4186797;83;28462;-71
2021/12/02 18:35:04;;;;;;;15.40;5.53;;;;;;;4.11;100.00;97470.89;4185556;83;28529;-73
2021/12/02 18:41:06;;;;;;;11.22;4.78;;;;;;;4.01;100.00;97481.56;4170892;83;28466;-74
2021/12/02 18:47:07;;;;;;;12.98;4.37;;;;;;;4.13;100.00;97491.42;4136916;85;28608;-72
2021/12/02 18:53:09;;;;;;;15.85;5.50;;;;;;;4.16;100.00;97504.25;4148799;85;28502;-71
2021/12/02 18:59:10;;;;;;;11.73;6.20;;;;;;;4.25;100.00;97500.23;4145793;85;28537;-73
2021/12/02 19:05:17;;;;;;;16.57;7.15;;;;;;;4.40;100.00;97497.14;4147520;85;28476;-73
2021/12/02 19:30:01;;;;;;;31.85;13.45;;;;;;;4.64;100.00;97505.69;4146694;85;28466;-84
2021/12/02 19:36:08;;;;;;;38.75;17.82;;;;;;;4.77;100.00;97517.97;4182609;85;28462;-81
2021/12/02 19:42:09;;;;;;;33.60;15.98;;;;;;;4.85;100.00;97529.62;4191917;83;28531;-81
2021/12/02 19:48:11;;;;;;;35.13;17.52;;;;;;;4.81;100.00;97526.60;4104434;85;28516;-78
2021/12/02 19:54:12;;;;;;;46.35;19.73;;;;;;;4.72;100.00;97534.09;4079446;86;28580;-83
2021/12/02 20:00:20;;;;;;;44.63;19.55;;;;;;;4.70;100.00;97538.84;4146496;84;28512;-82
2021/12/02 20:06:21;;;;;;;36.93;17.37;;;;;;;4.58;100.00;97547.34;4150524;86;28522;-77
2021/12/02 20:12:22;;;;;;;31.55;14.10;;;;;;;4.43;100.00;97546.45;4141336;84;28554;-74
2021/12/02 20:18:25;;;;;;;22.98;10.95;;;;;;;4.45;100.00;97555.83;4156198;86;28522;-82
2021/12/02 20:24:29;;;;;;;20.08;8.28;;;;;;;4.28;100.00;97557.00;4147893;85;28487;-77
2021/12/02 20:30:34;;;;;;;15.30;7.35;;;;;;;4.41;100.00;97575.14;4142059;84;28542;-75
2021/12/02 20:36:38;;;;;;;17.00;6.97;;;;;;;4.32;100.00;97573.30;4155401;84;28549;-75
2021/12/02 20:42:40;;;;;;;16.75;5.95;;;;;;;4.22;99.19;97572.53;4152481;84;28553;-74
2021/12/02 20:48:52;;;;;;;14.35;5.78;;;;;;;4.08;95.81;97559.92;4152313;84;28554;-74
2021/12/02 20:54:51;;;;;;;17.80;6.00;;;;;;;3.81;87.27;97570.92;4137215;84;28525;-74
2021/12/02 21:00:52;;;;;;;17.35;6.17;;;;;;;3.72;92.95;97561.63;4129404;84;28932;-75
2021/12/02 21:06:54;;;;;;;16.35;6.10;;;;;;;3.65;88.46;97574.99;4193557;83;28522;-74
2021/12/02 21:12:59;;;;;;;12.63;5.42;;;;;;;3.72;85.35;97570.92;4191394;83;28459;-75
2021/12/02 21:19:00;;;;;;;14.60;5.17;;;;;;;3.67;83.62;97579.56;4182336;83;28481;-75
2021/12/02 21:25:03;;;;;;;14.20;5.15;;;;;;;3.66;84.31;97605.02;4171297;85;28525;-75
2021/12/02 21:31:05;;;;;;;13.38;4.53;;;;;;;3.60;81.50;97611.53;4194251;83;28937;-75
2021/12/02 21:37:16;;;;;;;13.58;4.95;;;;;;;3.39;80.68;97599.48;4177660;83;28539;-74
2021/12/02 21:43:13;;;;;;;11.85;3.90;;;;;;;3.45;80.06;97634.48;4179887;83;28497;-76
2021/12/02 21:49:17;;;;;;;11.15;3.80;;;;;;;3.27;76.75;97637.10;4193612;83;28527;-78
2021/12/02 21:55:20;;;;;;;11.57;3.72;;;;;;;3.16;75.62;97648.73;4188973;83;28484;-80
2021/12/02 22:01:35;;;;;;;10.85;3.42;;;;;;;3.15;76.06;97629.84;4183416;83;28471;-80
2021/12/02 22:07:26;;;;;;;10.40;3.58;;;;;;;3.06;73.87;97647.08;4192149;83;28524;-79
2021/12/02 22:13:27;;;;;;;9.58;3.08;;;;;;;2.93;71.95;97641.34;4190264;83;28475;-80
2021/12/02 22:19:30;;;;;;;8.48;2.65;;;;;;;2.91;70.51;97644.73;4199144;83;28480;-78
2021/12/02 22:25:31;;;;;;;7.85;2.70;;;;;;;2.85;70.36;97657.03;4196075;83;28513;-80
2021/12/02 22:31:33;;;;;;;6.80;2.37;;;;;;;2.95;71.64;97664.51;4199202;83;28513;-79
2021/12/02 22:37:35;;;;;;;9.73;3.02;;;;;;;2.79;71.93;97667.17;4189748;83;28482;-79
2021/12/02 22:43:36;;;;;;;7.15;2.58;;;;;;;2.88;71.36;97679.69;4181065;83;28543;-81
2021/12/02 22:49:38;;;;;;;8.08;3.20;;;;;;;2.83;71.69;97682.98;4176842;83;28518;-81
2021/12/02 22:55:43;;;;;;;8.38;2.40;;;;;;;2.81;72.01;97692.98;4182161;83;28474;-81
2021/12/02 23:01:44;;;;;;;11.25;2.83;;;;;;;2.68;72.81;97719.11;4171045;83;28555;-80
2021/12/02 23:07:46;;;;;;;7.03;2.83;;;;;;;2.76;74.81;97722.84;4188645;83;28516;-81
2021/12/02 23:13:48;;;;;;;6.83;2.45;;;;;;;2.84;75.67;97738.20;4188013;83;28483;-77
2021/12/02 23:19:49;;;;;;;7.55;2.47;;;;;;;2.77;72.37;97724.47;4204090;83;28531;-80
2021/12/02 23:26:09;;;;;;;;;;;;;;;;;;;;;
2021/12/02 23:31:58;;;;;;;;;;;;;;;2.75;74.01;97734.47;4143365;84;28605;-80
2021/12/02 23:38:00;;;;;;;9.00;2.90;;;;;;;2.68;72.69;97735.03;4189142;84;20194;-78
2021/12/02 23:44:02;;;;;;;9.53;3.33;;;;;;;2.69;71.46;97752.59;4195852;83;28508;-79
2021/12/02 23:50:08;;;;;;;8.38;3.35;;;;;;;2.68;71.77;97762.08;4127375;86;28475;-78
2021/12/02 23:56:10;;;;;;;9.60;2.80;;;;;;;2.70;70.44;97775.44;4157259;84;28518;-79
